sensor_id;sensor_type;location;lat;lon;timestamp;temperature;humidity
52181;DHT22;38158;53.338;6.514;2023-07-29T00:02:00;18.30;99.90
52181;DHT22;38158;53.338;6.514;2023-07-29T00:04:25;18.30;99.90
52181;DHT22;38158;53.338;6.514;2023-07-29T00:06:51;18.30;99.90
52181;DHT22;38158;53.338;6.514;2023-07-29T00:09:17;18.30;99.90
52181;DHT22;38158;53.338;6.514;2023-07-29T00:11:42;18.30;99.90
52181;DHT22;38158;53.338;6.514;2023-07-29T00:14:08;18.30;99.90
52181;DHT22;38158;53.338;6.514;2023-07-29T00:16:34;18.30;99.90
52181;DHT22;38158;53.338;6.514;2023-07-29T00:18:59;18.30;99.90
52181;DHT22;38158;53.338;6.514;2023-07-29T00:21:25;18.30;99.90
52181;DHT22;38158;53.338;6.514;2023-07-29T00:23:51;18.30;99.90
52181;DHT22;38158;53.338;6.514;2023-07-29T00:26:17;18.30;99.90
52181;DHT22;38158;53.338;6.514;2023-07-29T00:28:42;18.30;99.90
52181;DHT22;38158;53.338;6.514;2023-07-29T00:31:08;18.30;99.90
52181;DHT22;38158;53.338;6.514;2023-07-29T00:33:34;18.30;99.90
52181;DHT22;38158;53.338;6.514;2023-07-29T00:35:59;18.30;99.90
52181;DHT22;38158;53.338;6.514;2023-07-29T00:38:28;18.30;99.90
52181;DHT22;38158;53.338;6.514;2023-07-29T00:40:54;18.30;99.90
52181;DHT22;38158;53.338;6.514;2023-07-29T00:43:20;18.30;99.90
52181;DHT22;38158;53.338;6.514;2023-07-29T00:45:46;18.20;99.90
52181;DHT22;38158;53.338;6.514;2023-07-29T00:48:13;18.20;99.90
52181;DHT22;38158;53.338;6.514;2023-07-29T00:50:39;18.20;99.90
52181;DHT22;38158;53.338;6.514;2023-07-29T00:53:05;18.20;99.90
52181;DHT22;38158;53.338;6.514;2023-07-29T00:55:31;18.20;99.90
52181;DHT22;38158;53.338;6.514;2023-07-29T00:57:57;18.10;99.90
52181;DHT22;38158;53.338;6.514;2023-07-29T01:00:23;18.10;99.90
52181;DHT22;38158;53.338;6.514;2023-07-29T01:02:49;18.10;99.90
52181;DHT22;38158;53.338;6.514;2023-07-29T01:05:16;18.10;99.90
52181;DHT22;38158;53.338;6.514;2023-07-29T01:07:51;18.10;99.90
52181;DHT22;38158;53.338;6.514;2023-07-29T01:10:35;18.10;99.90
52181;DHT22;38158;53.338;6.514;2023-07-29T01:16:13;18.00;99.90
52181;DHT22;38158;53.338;6.514;2023-07-29T01:18:42;18.00;99.90
52181;DHT22;38158;53.338;6.514;2023-07-29T01:21:09;18.00;99.90
52181;DHT22;38158;53.338;6.514;2023-07-29T01:23:36;18.00;99.90
52181;DHT22;38158;53.338;6.514;2023-07-29T01:26:03;18.00;99.90
52181;DHT22;38158;53.338;6.514;2023-07-29T01:28:29;18.00;99.90
52181;DHT22;38158;53.338;6.514;2023-07-29T01:31:07;17.90;99.90
52181;DHT22;38158;53.338;6.514;2023-07-29T01:33:51;17.90;99.90
52181;DHT22;38158;53.338;6.514;2023-07-29T01:36:21;17.90;99.90
52181;DHT22;38158;53.338;6.514;2023-07-29T01:38:49;17.90;99.90
52181;DHT22;38158;53.338;6.514;2023-07-29T01:41:17;17.90;99.90
52181;DHT22;38158;53.338;6.514;2023-07-29T01:43:44;17.90;99.90
52181;DHT22;38158;53.338;6.514;2023-07-29T01:46:10;17.80;99.90
52181;DHT22;38158;53.338;6.514;2023-07-29T01:48:37;17.80;99.90
52181;DHT22;38158;53.338;6.514;2023-07-29T01:51:03;17.80;99.90
52181;DHT22;38158;53.338;6.514;2023-07-29T01:53:30;17.80;99.90
52181;DHT22;38158;53.338;6.514;2023-07-29T01:55:55;17.80;99.90
52181;DHT22;38158;53.338;6.514;2023-07-29T01:58:22;17.80;99.90
52181;DHT22;38158;53.338;6.514;2023-07-29T02:00:48;17.80;99.90
52181;DHT22;38158;53.338;6.514;2023-07-29T02:03:14;17.80;99.90
52181;DHT22;38158;53.338;6.514;2023-07-29T02:05:39;17.80;99.90
52181;DHT22;38158;53.338;6.514;2023-07-29T02:08:05;17.70;99.90
52181;DHT22;38158;53.338;6.514;2023-07-29T02:10:31;17.80;99.90
52181;DHT22;38158;53.338;6.514;2023-07-29T02:12:57;17.70;99.90
52181;DHT22;38158;53.338;6.514;2023-07-29T02:15:23;17.70;99.90
52181;DHT22;38158;53.338;6.514;2023-07-29T02:17:50;17.70;99.90
52181;DHT22;38158;53.338;6.514;2023-07-29T02:20:16;17.70;99.90
52181;DHT22;38158;53.338;6.514;2023-07-29T02:22:41;17.70;99.90
52181;DHT22;38158;53.338;6.514;2023-07-29T02:25:07;17.60;99.90
52181;DHT22;38158;53.338;6.514;2023-07-29T02:27:33;17.60;99.90
52181;DHT22;38158;53.338;6.514;2023-07-29T02:29:59;17.60;99.90
52181;DHT22;38158;53.338;6.514;2023-07-29T02:32:24;17.60;99.90
52181;DHT22;38158;53.338;6.514;2023-07-29T02:34:50;17.50;99.90
52181;DHT22;38158;53.338;6.514;2023-07-29T02:37:16;17.50;99.90
52181;DHT22;38158;53.338;6.514;2023-07-29T02:39:42;17.50;99.90
52181;DHT22;38158;53.338;6.514;2023-07-29T02:42:08;17.50;99.90
52181;DHT22;38158;53.338;6.514;2023-07-29T02:44:33;17.40;99.90
52181;DHT22;38158;53.338;6.514;2023-07-29T02:46:59;17.40;99.90
52181;DHT22;38158;53.338;6.514;2023-07-29T02:49:25;17.40;99.90
52181;DHT22;38158;53.338;6.514;2023-07-29T02:51:50;17.30;99.90
52181;DHT22;38158;53.338;6.514;2023-07-29T02:54:16;17.30;99.90
52181;DHT22;38158;53.338;6.514;2023-07-29T02:56:42;17.30;99.90
52181;DHT22;38158;53.338;6.514;2023-07-29T02:59:08;17.20;99.90
52181;DHT22;38158;53.338;6.514;2023-07-29T03:01:33;17.20;99.90
52181;DHT22;38158;53.338;6.514;2023-07-29T03:03:59;17.20;99.90
52181;DHT22;38158;53.338;6.514;2023-07-29T03:06:25;17.20;99.90
52181;DHT22;38158;53.338;6.514;2023-07-29T03:08:50;17.10;99.90
52181;DHT22;38158;53.338;6.514;2023-07-29T03:11:16;17.10;99.90
52181;DHT22;38158;53.338;6.514;2023-07-29T03:13:43;17.00;99.90
52181;DHT22;38158;53.338;6.514;2023-07-29T03:16:09;17.00;99.90
52181;DHT22;38158;53.338;6.514;2023-07-29T03:18:35;17.00;99.90
52181;DHT22;38158;53.338;6.514;2023-07-29T03:21:02;16.90;99.90
52181;DHT22;38158;53.338;6.514;2023-07-29T03:23:28;16.90;99.90
52181;DHT22;38158;53.338;6.514;2023-07-29T03:25:55;16.90;99.90
52181;DHT22;38158;53.338;6.514;2023-07-29T03:28:24;16.90;99.90
52181;DHT22;38158;53.338;6.514;2023-07-29T03:30:50;16.90;99.90
52181;DHT22;38158;53.338;6.514;2023-07-29T03:33:16;16.80;99.90
52181;DHT22;38158;53.338;6.514;2023-07-29T03:35:41;16.80;99.90
52181;DHT22;38158;53.338;6.514;2023-07-29T03:38:13;16.80;99.90
52181;DHT22;38158;53.338;6.514;2023-07-29T03:40:39;16.70;99.90
52181;DHT22;38158;53.338;6.514;2023-07-29T03:43:05;16.60;99.90
52181;DHT22;38158;53.338;6.514;2023-07-29T03:45:32;16.60;99.90
52181;DHT22;38158;53.338;6.514;2023-07-29T03:47:57;16.60;99.90
52181;DHT22;38158;53.338;6.514;2023-07-29T03:50:23;16.60;99.90
52181;DHT22;38158;53.338;6.514;2023-07-29T03:52:50;16.60;99.90
52181;DHT22;38158;53.338;6.514;2023-07-29T03:55:15;16.60;99.90
52181;DHT22;38158;53.338;6.514;2023-07-29T03:57:41;16.50;99.90
52181;DHT22;38158;53.338;6.514;2023-07-29T04:00:07;16.50;99.90
52181;DHT22;38158;53.338;6.514;2023-07-29T04:02:34;16.40;99.90
52181;DHT22;38158;53.338;6.514;2023-07-29T04:05:03;16.40;99.90
52181;DHT22;38158;53.338;6.514;2023-07-29T04:07:30;16.40;99.90
52181;DHT22;38158;53.338;6.514;2023-07-29T04:09:55;16.40;99.90
52181;DHT22;38158;53.338;6.514;2023-07-29T04:12:22;16.40;99.90
52181;DHT22;38158;53.338;6.514;2023-07-29T04:14:48;16.40;99.90
52181;DHT22;38158;53.338;6.514;2023-07-29T04:17:15;16.40;99.90
52181;DHT22;38158;53.338;6.514;2023-07-29T04:19:40;16.30;99.90
52181;DHT22;38158;53.338;6.514;2023-07-29T04:22:06;16.30;99.90
52181;DHT22;38158;53.338;6.514;2023-07-29T04:24:32;16.40;99.90
52181;DHT22;38158;53.338;6.514;2023-07-29T04:26:57;17.10;99.90
52181;DHT22;38158;53.338;6.514;2023-07-29T04:29:23;16.40;99.90
52181;DHT22;38158;53.338;6.514;2023-07-29T04:31:52;16.40;99.90
52181;DHT22;38158;53.338;6.514;2023-07-29T04:34:19;16.40;99.90
52181;DHT22;38158;53.338;6.514;2023-07-29T04:36:45;16.40;99.90
52181;DHT22;38158;53.338;6.514;2023-07-29T04:39:11;16.40;99.90
52181;DHT22;38158;53.338;6.514;2023-07-29T04:41:37;16.40;99.90
52181;DHT22;38158;53.338;6.514;2023-07-29T04:44:02;16.40;99.90
52181;DHT22;38158;53.338;6.514;2023-07-29T04:46:28;16.40;99.90
52181;DHT22;38158;53.338;6.514;2023-07-29T04:48:54;16.40;99.90
52181;DHT22;38158;53.338;6.514;2023-07-29T04:51:20;16.40;99.90
52181;DHT22;38158;53.338;6.514;2023-07-29T04:53:45;16.50;99.90
52181;DHT22;38158;53.338;6.514;2023-07-29T04:56:11;16.50;99.90
52181;DHT22;38158;53.338;6.514;2023-07-29T04:58:37;16.50;99.90
52181;DHT22;38158;53.338;6.514;2023-07-29T05:01:03;16.50;99.90
52181;DHT22;38158;53.338;6.514;2023-07-29T05:03:29;16.50;99.90
52181;DHT22;38158;53.338;6.514;2023-07-29T05:05:55;16.60;99.90
52181;DHT22;38158;53.338;6.514;2023-07-29T05:08:22;16.50;99.90
52181;DHT22;38158;53.338;6.514;2023-07-29T05:10:51;16.60;99.90
52181;DHT22;38158;53.338;6.514;2023-07-29T05:13:18;16.60;99.90
52181;DHT22;38158;53.338;6.514;2023-07-29T05:15:43;16.60;99.90
52181;DHT22;38158;53.338;6.514;2023-07-29T05:18:09;16.60;99.90
52181;DHT22;38158;53.338;6.514;2023-07-29T05:20:35;16.60;99.90
52181;DHT22;38158;53.338;6.514;2023-07-29T05:23:00;16.70;99.90
52181;DHT22;38158;53.338;6.514;2023-07-29T05:25:26;16.70;99.90
52181;DHT22;38158;53.338;6.514;2023-07-29T05:27:52;16.70;99.90
52181;DHT22;38158;53.338;6.514;2023-07-29T05:30:18;16.70;99.90
52181;DHT22;38158;53.338;6.514;2023-07-29T05:32:44;16.80;99.90
52181;DHT22;38158;53.338;6.514;2023-07-29T05:35:10;16.80;99.90
52181;DHT22;38158;53.338;6.514;2023-07-29T05:37:39;16.80;99.90
52181;DHT22;38158;53.338;6.514;2023-07-29T05:40:08;16.80;99.90
52181;DHT22;38158;53.338;6.514;2023-07-29T05:42:36;16.90;99.90
52181;DHT22;38158;53.338;6.514;2023-07-29T05:45:02;16.90;99.90
52181;DHT22;38158;53.338;6.514;2023-07-29T05:47:28;16.90;99.90
52181;DHT22;38158;53.338;6.514;2023-07-29T05:49:53;16.90;99.90
52181;DHT22;38158;53.338;6.514;2023-07-29T05:52:20;16.90;99.90
52181;DHT22;38158;53.338;6.514;2023-07-29T05:54:45;17.00;99.90
52181;DHT22;38158;53.338;6.514;2023-07-29T05:57:12;17.00;99.90
52181;DHT22;38158;53.338;6.514;2023-07-29T05:59:38;17.00;99.90
52181;DHT22;38158;53.338;6.514;2023-07-29T06:02:04;17.00;99.90
52181;DHT22;38158;53.338;6.514;2023-07-29T06:04:30;17.00;99.90
52181;DHT22;38158;53.338;6.514;2023-07-29T06:06:56;17.00;99.90
52181;DHT22;38158;53.338;6.514;2023-07-29T06:09:22;17.00;99.90
52181;DHT22;38158;53.338;6.514;2023-07-29T06:11:49;17.00;99.90
52181;DHT22;38158;53.338;6.514;2023-07-29T06:14:14;17.10;99.90
52181;DHT22;38158;53.338;6.514;2023-07-29T06:16:40;17.10;99.90
52181;DHT22;38158;53.338;6.514;2023-07-29T06:19:06;17.10;99.90
52181;DHT22;38158;53.338;6.514;2023-07-29T06:21:34;17.20;99.90
52181;DHT22;38158;53.338;6.514;2023-07-29T06:24:00;17.20;99.90
52181;DHT22;38158;53.338;6.514;2023-07-29T06:26:26;17.20;99.90
52181;DHT22;38158;53.338;6.514;2023-07-29T06:28:52;17.20;99.90
52181;DHT22;38158;53.338;6.514;2023-07-29T06:31:17;17.20;99.90
52181;DHT22;38158;53.338;6.514;2023-07-29T06:33:43;17.30;99.90
52181;DHT22;38158;53.338;6.514;2023-07-29T06:36:08;17.30;99.90
52181;DHT22;38158;53.338;6.514;2023-07-29T06:38:34;17.40;99.90
52181;DHT22;38158;53.338;6.514;2023-07-29T06:41:00;17.50;99.90
52181;DHT22;38158;53.338;6.514;2023-07-29T06:43:25;17.60;99.90
52181;DHT22;38158;53.338;6.514;2023-07-29T06:45:51;17.80;99.90
52181;DHT22;38158;53.338;6.514;2023-07-29T06:48:17;17.90;99.90
52181;DHT22;38158;53.338;6.514;2023-07-29T06:50:44;18.00;99.90
52181;DHT22;38158;53.338;6.514;2023-07-29T06:53:10;18.00;99.90
52181;DHT22;38158;53.338;6.514;2023-07-29T06:55:35;17.90;99.90
52181;DHT22;38158;53.338;6.514;2023-07-29T06:58:01;18.00;99.90
52181;DHT22;38158;53.338;6.514;2023-07-29T07:00:27;18.00;99.90
52181;DHT22;38158;53.338;6.514;2023-07-29T07:02:53;18.00;99.90
52181;DHT22;38158;53.338;6.514;2023-07-29T07:05:19;18.10;99.90
52181;DHT22;38158;53.338;6.514;2023-07-29T07:07:44;18.00;99.90
52181;DHT22;38158;53.338;6.514;2023-07-29T07:10:10;18.10;99.90
52181;DHT22;38158;53.338;6.514;2023-07-29T07:12:36;18.10;99.90
52181;DHT22;38158;53.338;6.514;2023-07-29T07:15:01;18.10;99.90
52181;DHT22;38158;53.338;6.514;2023-07-29T07:17:27;18.20;99.90
52181;DHT22;38158;53.338;6.514;2023-07-29T07:19:53;18.30;99.90
52181;DHT22;38158;53.338;6.514;2023-07-29T07:22:19;18.30;99.90
52181;DHT22;38158;53.338;6.514;2023-07-29T07:24:44;18.30;99.90
52181;DHT22;38158;53.338;6.514;2023-07-29T07:27:10;18.30;99.90
52181;DHT22;38158;53.338;6.514;2023-07-29T07:29:36;18.40;99.90
52181;DHT22;38158;53.338;6.514;2023-07-29T07:32:01;18.50;99.90
52181;DHT22;38158;53.338;6.514;2023-07-29T07:34:27;18.50;99.90
52181;DHT22;38158;53.338;6.514;2023-07-29T07:36:53;18.50;99.90
52181;DHT22;38158;53.338;6.514;2023-07-29T07:39:19;18.50;99.90
52181;DHT22;38158;53.338;6.514;2023-07-29T07:41:44;18.50;99.90
52181;DHT22;38158;53.338;6.514;2023-07-29T07:44:10;18.50;99.90
52181;DHT22;38158;53.338;6.514;2023-07-29T07:46:38;18.50;99.90
52181;DHT22;38158;53.338;6.514;2023-07-29T07:49:03;18.50;99.90
52181;DHT22;38158;53.338;6.514;2023-07-29T07:51:29;18.50;99.90
52181;DHT22;38158;53.338;6.514;2023-07-29T07:53:55;18.50;99.90
52181;DHT22;38158;53.338;6.514;2023-07-29T07:56:21;18.60;99.90
52181;DHT22;38158;53.338;6.514;2023-07-29T07:58:46;18.70;99.90
52181;DHT22;38158;53.338;6.514;2023-07-29T08:01:12;18.70;99.90
52181;DHT22;38158;53.338;6.514;2023-07-29T08:03:38;18.80;99.90
52181;DHT22;38158;53.338;6.514;2023-07-29T08:06:04;18.90;99.90
52181;DHT22;38158;53.338;6.514;2023-07-29T08:08:29;19.00;99.90
52181;DHT22;38158;53.338;6.514;2023-07-29T08:10:56;19.10;99.90
52181;DHT22;38158;53.338;6.514;2023-07-29T08:13:22;19.20;99.90
52181;DHT22;38158;53.338;6.514;2023-07-29T08:15:49;19.20;99.90
52181;DHT22;38158;53.338;6.514;2023-07-29T08:18:15;19.20;99.90
52181;DHT22;38158;53.338;6.514;2023-07-29T08:20:50;19.20;99.90
52181;DHT22;38158;53.338;6.514;2023-07-29T08:23:16;19.30;99.90
52181;DHT22;38158;53.338;6.514;2023-07-29T08:25:42;19.30;99.90
52181;DHT22;38158;53.338;6.514;2023-07-29T08:28:07;19.30;99.90
52181;DHT22;38158;53.338;6.514;2023-07-29T08:30:33;19.30;99.90
52181;DHT22;38158;53.338;6.514;2023-07-29T08:32:59;19.40;99.90
52181;DHT22;38158;53.338;6.514;2023-07-29T08:35:24;19.40;99.90
52181;DHT22;38158;53.338;6.514;2023-07-29T08:37:50;19.40;99.90
52181;DHT22;38158;53.338;6.514;2023-07-29T08:40:16;19.50;99.90
52181;DHT22;38158;53.338;6.514;2023-07-29T08:42:45;19.50;99.90
52181;DHT22;38158;53.338;6.514;2023-07-29T08:45:12;19.50;99.90
52181;DHT22;38158;53.338;6.514;2023-07-29T08:47:39;19.50;99.90
52181;DHT22;38158;53.338;6.514;2023-07-29T08:50:05;19.50;99.90
52181;DHT22;38158;53.338;6.514;2023-07-29T08:52:32;19.50;99.90
52181;DHT22;38158;53.338;6.514;2023-07-29T08:54:58;19.70;99.90
52181;DHT22;38158;53.338;6.514;2023-07-29T08:57:24;19.80;99.90
52181;DHT22;38158;53.338;6.514;2023-07-29T08:59:51;20.00;99.90
52181;DHT22;38158;53.338;6.514;2023-07-29T09:02:18;20.00;99.90
52181;DHT22;38158;53.338;6.514;2023-07-29T09:04:43;20.10;99.90
52181;DHT22;38158;53.338;6.514;2023-07-29T09:07:09;20.10;99.90
52181;DHT22;38158;53.338;6.514;2023-07-29T09:09:35;20.10;99.90
52181;DHT22;38158;53.338;6.514;2023-07-29T09:12:01;20.10;99.90
52181;DHT22;38158;53.338;6.514;2023-07-29T09:14:28;20.10;99.90
52181;DHT22;38158;53.338;6.514;2023-07-29T09:16:54;20.10;99.90
52181;DHT22;38158;53.338;6.514;2023-07-29T09:19:19;20.10;99.90
52181;DHT22;38158;53.338;6.514;2023-07-29T09:21:46;20.10;99.90
52181;DHT22;38158;53.338;6.514;2023-07-29T09:24:12;20.10;99.90
52181;DHT22;38158;53.338;6.514;2023-07-29T09:26:48;20.20;99.90
52181;DHT22;38158;53.338;6.514;2023-07-29T09:29:14;20.40;99.90
52181;DHT22;38158;53.338;6.514;2023-07-29T09:31:40;20.50;99.90
52181;DHT22;38158;53.338;6.514;2023-07-29T09:34:06;20.60;99.90
52181;DHT22;38158;53.338;6.514;2023-07-29T09:36:33;20.70;99.90
52181;DHT22;38158;53.338;6.514;2023-07-29T09:38:59;20.80;99.90
52181;DHT22;38158;53.338;6.514;2023-07-29T09:41:26;20.80;99.90
52181;DHT22;38158;53.338;6.514;2023-07-29T09:43:59;20.90;99.90
52181;DHT22;38158;53.338;6.514;2023-07-29T09:46:27;21.00;99.90
52181;DHT22;38158;53.338;6.514;2023-07-29T09:48:57;21.00;99.90
52181;DHT22;38158;53.338;6.514;2023-07-29T09:51:23;21.00;99.90
52181;DHT22;38158;53.338;6.514;2023-07-29T09:53:50;21.00;99.90
52181;DHT22;38158;53.338;6.514;2023-07-29T09:56:18;21.00;99.90
52181;DHT22;38158;53.338;6.514;2023-07-29T09:58:50;21.20;99.90
52181;DHT22;38158;53.338;6.514;2023-07-29T10:01:15;21.30;99.90
52181;DHT22;38158;53.338;6.514;2023-07-29T10:03:42;21.50;99.90
52181;DHT22;38158;53.338;6.514;2023-07-29T10:06:09;21.60;99.90
52181;DHT22;38158;53.338;6.514;2023-07-29T10:08:37;21.50;99.90
52181;DHT22;38158;53.338;6.514;2023-07-29T10:11:06;21.60;99.90
52181;DHT22;38158;53.338;6.514;2023-07-29T10:13:33;21.70;99.90
52181;DHT22;38158;53.338;6.514;2023-07-29T10:15:59;21.80;99.90
52181;DHT22;38158;53.338;6.514;2023-07-29T10:18:28;21.80;99.90
52181;DHT22;38158;53.338;6.514;2023-07-29T10:20:56;21.70;99.90
52181;DHT22;38158;53.338;6.514;2023-07-29T10:23:25;21.70;99.90
52181;DHT22;38158;53.338;6.514;2023-07-29T10:26:10;21.70;99.90
52181;DHT22;38158;53.338;6.514;2023-07-29T10:28:40;21.70;99.90
52181;DHT22;38158;53.338;6.514;2023-07-29T10:31:06;21.70;99.90
52181;DHT22;38158;53.338;6.514;2023-07-29T10:33:34;21.60;99.90
52181;DHT22;38158;53.338;6.514;2023-07-29T10:36:00;21.70;99.90
52181;DHT22;38158;53.338;6.514;2023-07-29T10:38:26;21.80;99.90
52181;DHT22;38158;53.338;6.514;2023-07-29T10:40:55;22.00;99.90
52181;DHT22;38158;53.338;6.514;2023-07-29T10:45:56;22.40;99.90
52181;DHT22;38158;53.338;6.514;2023-07-29T10:51:22;22.20;99.90
52181;DHT22;38158;53.338;6.514;2023-07-29T10:53:47;22.30;99.90
52181;DHT22;38158;53.338;6.514;2023-07-29T10:56:31;22.30;99.90
52181;DHT22;38158;53.338;6.514;2023-07-29T11:01:52;22.40;99.90
52181;DHT22;38158;53.338;6.514;2023-07-29T11:17:35;21.70;99.90
52181;DHT22;38158;53.338;6.514;2023-07-29T11:20:02;21.60;99.90
52181;DHT22;38158;53.338;6.514;2023-07-29T11:22:29;21.40;99.90
52181;DHT22;38158;53.338;6.514;2023-07-29T11:24:55;21.30;99.90
52181;DHT22;38158;53.338;6.514;2023-07-29T11:27:21;21.20;99.90
52181;DHT22;38158;53.338;6.514;2023-07-29T11:29:48;21.10;99.90
52181;DHT22;38158;53.338;6.514;2023-07-29T11:32:14;21.00;99.90
52181;DHT22;38158;53.338;6.514;2023-07-29T11:34:41;20.80;99.90
52181;DHT22;38158;53.338;6.514;2023-07-29T11:37:06;20.90;99.90
52181;DHT22;38158;53.338;6.514;2023-07-29T11:39:40;21.00;99.90
52181;DHT22;38158;53.338;6.514;2023-07-29T11:42:07;21.10;99.90
52181;DHT22;38158;53.338;6.514;2023-07-29T11:44:36;21.30;99.90
52181;DHT22;38158;53.338;6.514;2023-07-29T11:47:02;21.40;99.90
52181;DHT22;38158;53.338;6.514;2023-07-29T11:49:28;21.60;99.90
52181;DHT22;38158;53.338;6.514;2023-07-29T11:51:53;21.70;99.90
52181;DHT22;38158;53.338;6.514;2023-07-29T11:54:19;21.70;99.90
52181;DHT22;38158;53.338;6.514;2023-07-29T11:56:47;21.60;99.90
52181;DHT22;38158;53.338;6.514;2023-07-29T11:59:14;21.50;99.90
52181;DHT22;38158;53.338;6.514;2023-07-29T12:01:40;21.50;99.90
52181;DHT22;38158;53.338;6.514;2023-07-29T12:04:06;21.30;99.90
52181;DHT22;38158;53.338;6.514;2023-07-29T12:06:32;21.00;99.90
52181;DHT22;38158;53.338;6.514;2023-07-29T12:08:58;20.50;99.90
52181;DHT22;38158;53.338;6.514;2023-07-29T12:11:24;20.20;99.90
52181;DHT22;38158;53.338;6.514;2023-07-29T12:13:49;19.90;99.90
52181;DHT22;38158;53.338;6.514;2023-07-29T12:16:18;19.80;99.90
52181;DHT22;38158;53.338;6.514;2023-07-29T12:18:44;19.80;99.90
52181;DHT22;38158;53.338;6.514;2023-07-29T12:21:10;19.80;99.90
52181;DHT22;38158;53.338;6.514;2023-07-29T12:23:36;19.70;99.90
52181;DHT22;38158;53.338;6.514;2023-07-29T12:26:01;19.60;99.90
52181;DHT22;38158;53.338;6.514;2023-07-29T12:28:28;19.50;99.90
52181;DHT22;38158;53.338;6.514;2023-07-29T12:30:54;19.40;99.90
52181;DHT22;38158;53.338;6.514;2023-07-29T12:33:31;19.50;99.90
52181;DHT22;38158;53.338;6.514;2023-07-29T12:35:57;19.60;99.90
52181;DHT22;38158;53.338;6.514;2023-07-29T12:38:26;19.60;99.90
52181;DHT22;38158;53.338;6.514;2023-07-29T12:40:52;19.70;99.90
52181;DHT22;38158;53.338;6.514;2023-07-29T12:43:17;19.80;99.90
52181;DHT22;38158;53.338;6.514;2023-07-29T12:45:43;20.10;99.90
52181;DHT22;38158;53.338;6.514;2023-07-29T12:48:10;20.20;99.90
52181;DHT22;38158;53.338;6.514;2023-07-29T12:50:36;20.30;99.90
52181;DHT22;38158;53.338;6.514;2023-07-29T12:53:02;20.30;99.90
52181;DHT22;38158;53.338;6.514;2023-07-29T12:55:28;20.30;99.90
52181;DHT22;38158;53.338;6.514;2023-07-29T12:57:53;20.40;99.90
52181;DHT22;38158;53.338;6.514;2023-07-29T13:00:19;20.20;99.90
52181;DHT22;38158;53.338;6.514;2023-07-29T13:02:45;20.20;99.90
52181;DHT22;38158;53.338;6.514;2023-07-29T13:05:11;20.30;99.90
52181;DHT22;38158;53.338;6.514;2023-07-29T13:07:39;20.40;99.90
52181;DHT22;38158;53.338;6.514;2023-07-29T13:10:06;20.40;99.90
52181;DHT22;38158;53.338;6.514;2023-07-29T13:12:32;20.40;99.90
52181;DHT22;38158;53.338;6.514;2023-07-29T13:14:58;20.40;99.90
52181;DHT22;38158;53.338;6.514;2023-07-29T13:17:24;20.50;99.90
52181;DHT22;38158;53.338;6.514;2023-07-29T13:19:50;20.70;99.90
52181;DHT22;38158;53.338;6.514;2023-07-29T13:22:15;21.00;99.90
52181;DHT22;38158;53.338;6.514;2023-07-29T13:24:41;21.50;99.90
52181;DHT22;38158;53.338;6.514;2023-07-29T13:27:07;21.50;99.90
52181;DHT22;38158;53.338;6.514;2023-07-29T13:29:32;21.70;99.90
52181;DHT22;38158;53.338;6.514;2023-07-29T13:31:58;21.80;99.90
52181;DHT22;38158;53.338;6.514;2023-07-29T13:34:24;21.80;99.90
52181;DHT22;38158;53.338;6.514;2023-07-29T13:36:49;21.90;99.90
52181;DHT22;38158;53.338;6.514;2023-07-29T13:39:15;21.90;99.90
52181;DHT22;38158;53.338;6.514;2023-07-29T13:41:41;21.90;99.90
52181;DHT22;38158;53.338;6.514;2023-07-29T13:44:07;21.80;99.90
52181;DHT22;38158;53.338;6.514;2023-07-29T13:46:33;21.80;99.90
52181;DHT22;38158;53.338;6.514;2023-07-29T13:48:58;21.90;99.90
52181;DHT22;38158;53.338;6.514;2023-07-29T13:51:24;21.80;99.90
52181;DHT22;38158;53.338;6.514;2023-07-29T13:53:50;21.80;99.90
52181;DHT22;38158;53.338;6.514;2023-07-29T13:56:16;21.90;99.90
52181;DHT22;38158;53.338;6.514;2023-07-29T13:58:41;21.90;99.90
52181;DHT22;38158;53.338;6.514;2023-07-29T14:01:07;22.00;99.90
52181;DHT22;38158;53.338;6.514;2023-07-29T14:03:33;22.00;99.90
52181;DHT22;38158;53.338;6.514;2023-07-29T14:05:58;22.00;99.90
52181;DHT22;38158;53.338;6.514;2023-07-29T14:08:24;22.00;99.90
52181;DHT22;38158;53.338;6.514;2023-07-29T14:10:50;22.00;99.90
52181;DHT22;38158;53.338;6.514;2023-07-29T14:13:15;22.10;99.90
52181;DHT22;38158;53.338;6.514;2023-07-29T14:15:41;22.10;99.90
52181;DHT22;38158;53.338;6.514;2023-07-29T14:18:07;22.20;99.90
52181;DHT22;38158;53.338;6.514;2023-07-29T14:20:33;22.30;99.90
52181;DHT22;38158;53.338;6.514;2023-07-29T14:22:59;22.40;99.90
52181;DHT22;38158;53.338;6.514;2023-07-29T14:25:25;22.30;99.90
52181;DHT22;38158;53.338;6.514;2023-07-29T14:27:51;22.20;99.90
52181;DHT22;38158;53.338;6.514;2023-07-29T14:30:16;22.30;99.90
52181;DHT22;38158;53.338;6.514;2023-07-29T14:32:42;22.10;99.90
52181;DHT22;38158;53.338;6.514;2023-07-29T14:35:08;21.90;99.90
52181;DHT22;38158;53.338;6.514;2023-07-29T14:37:34;21.80;99.90
52181;DHT22;38158;53.338;6.514;2023-07-29T14:40:00;21.70;99.90
52181;DHT22;38158;53.338;6.514;2023-07-29T14:42:27;21.70;99.90
52181;DHT22;38158;53.338;6.514;2023-07-29T14:44:53;21.70;99.90
52181;DHT22;38158;53.338;6.514;2023-07-29T14:47:18;21.80;99.90
52181;DHT22;38158;53.338;6.514;2023-07-29T14:49:45;22.10;99.90
52181;DHT22;38158;53.338;6.514;2023-07-29T14:52:11;22.30;99.90
52181;DHT22;38158;53.338;6.514;2023-07-29T14:54:36;22.40;99.90
52181;DHT22;38158;53.338;6.514;2023-07-29T14:57:02;22.30;99.90
52181;DHT22;38158;53.338;6.514;2023-07-29T14:59:28;22.20;99.90
52181;DHT22;38158;53.338;6.514;2023-07-29T15:01:54;22.20;99.90
52181;DHT22;38158;53.338;6.514;2023-07-29T15:04:19;22.20;99.90
52181;DHT22;38158;53.338;6.514;2023-07-29T15:06:45;22.10;99.90
52181;DHT22;38158;53.338;6.514;2023-07-29T15:09:11;22.20;99.90
52181;DHT22;38158;53.338;6.514;2023-07-29T15:11:36;22.20;99.90
52181;DHT22;38158;53.338;6.514;2023-07-29T15:14:02;22.20;99.90
52181;DHT22;38158;53.338;6.514;2023-07-29T15:16:31;22.10;99.90
52181;DHT22;38158;53.338;6.514;2023-07-29T15:18:59;22.10;99.90
52181;DHT22;38158;53.338;6.514;2023-07-29T15:21:25;22.00;99.90
52181;DHT22;38158;53.338;6.514;2023-07-29T15:23:50;22.00;99.90
52181;DHT22;38158;53.338;6.514;2023-07-29T15:26:16;22.10;99.90
52181;DHT22;38158;53.338;6.514;2023-07-29T15:28:42;22.00;99.90
52181;DHT22;38158;53.338;6.514;2023-07-29T15:31:07;22.00;99.90
52181;DHT22;38158;53.338;6.514;2023-07-29T15:33:33;21.90;99.90
52181;DHT22;38158;53.338;6.514;2023-07-29T15:36:00;21.80;99.90
52181;DHT22;38158;53.338;6.514;2023-07-29T15:38:26;21.60;99.90
52181;DHT22;38158;53.338;6.514;2023-07-29T15:40:51;21.50;99.90
52181;DHT22;38158;53.338;6.514;2023-07-29T15:43:17;21.40;99.90
52181;DHT22;38158;53.338;6.514;2023-07-29T15:45:44;21.40;99.90
52181;DHT22;38158;53.338;6.514;2023-07-29T15:48:10;21.40;99.90
52181;DHT22;38158;53.338;6.514;2023-07-29T15:50:36;21.30;99.90